sensor_id;sensor_type;location;lat;lon;timestamp;P1;durP1;ratioP1;P2;durP2;ratioP2
20104;SDS011;10212;42.714;23.310;2022-12-18T00:04:43;12.32;;;8.32;;
20104;SDS011;10212;42.714;23.310;2022-12-18T00:09:43;12.63;;;8.25;;
20104;SDS011;10212;42.714;23.310;2022-12-18T00:14:44;14.47;;;9.27;;
20104;SDS011;10212;42.714;23.310;2022-12-18T00:19:44;17.10;;;10.43;;
20104;SDS011;10212;42.714;23.310;2022-12-18T00:24:45;15.88;;;9.23;;
20104;SDS011;10212;42.714;23.310;2022-12-18T00:29:45;13.40;;;9.23;;
20104;SDS011;10212;42.714;23.310;2022-12-18T00:34:45;15.55;;;10.25;;
20104;SDS011;10212;42.714;23.310;2022-12-18T00:39:47;16.65;;;10.32;;
20104;SDS011;10212;42.714;23.310;2022-12-18T00:44:48;13.88;;;9.13;;
20104;SDS011;10212;42.714;23.310;2022-12-18T00:49:48;14.93;;;9.50;;
20104;SDS011;10212;42.714;23.310;2022-12-18T00:54:48;15.27;;;9.80;;
20104;SDS011;10212;42.714;23.310;2022-12-18T00:59:50;15.17;;;9.43;;
20104;SDS011;10212;42.714;23.310;2022-12-18T01:04:52;14.77;;;9.90;;
20104;SDS011;10212;42.714;23.310;2022-12-18T01:09:52;16.55;;;10.13;;
20104;SDS011;10212;42.714;23.310;2022-12-18T01:14:52;17.27;;;10.63;;
20104;SDS011;10212;42.714;23.310;2022-12-18T01:19:53;17.30;;;10.73;;
20104;SDS011;10212;42.714;23.310;2022-12-18T01:24:53;17.33;;;10.80;;
20104;SDS011;10212;42.714;23.310;2022-12-18T01:29:54;18.95;;;11.27;;
20104;SDS011;10212;42.714;23.310;2022-12-18T01:34:54;17.43;;;11.20;;
20104;SDS011;10212;42.714;23.310;2022-12-18T01:39:54;18.17;;;11.27;;
20104;SDS011;10212;42.714;23.310;2022-12-18T01:50:12;18.08;;;11.10;;
20104;SDS011;10212;42.714;23.310;2022-12-18T02:00:18;16.75;;;10.38;;
20104;SDS011;10212;42.714;23.310;2022-12-18T02:05:24;16.80;;;9.75;;
20104;SDS011;10212;42.714;23.310;2022-12-18T02:10:40;16.60;;;9.88;;
20104;SDS011;10212;42.714;23.310;2022-12-18T02:16:43;18.92;;;10.20;;
20104;SDS011;10212;42.714;23.310;2022-12-18T02:26:58;13.10;;;8.95;;
20104;SDS011;10212;42.714;23.310;2022-12-18T02:32:02;14.00;;;8.70;;
20104;SDS011;10212;42.714;23.310;2022-12-18T02:37:09;13.60;;;8.70;;
20104;SDS011;10212;42.714;23.310;2022-12-18T02:42:14;12.77;;;7.65;;
20104;SDS011;10212;42.714;23.310;2022-12-18T02:47:17;12.10;;;7.57;;
20104;SDS011;10212;42.714;23.310;2022-12-18T02:52:27;13.77;;;9.05;;
20104;SDS011;10212;42.714;23.310;2022-12-18T02:57:42;15.77;;;8.88;;
20104;SDS011;10212;42.714;23.310;2022-12-18T03:08:10;14.23;;;9.23;;
20104;SDS011;10212;42.714;23.310;2022-12-18T03:13:23;15.75;;;9.05;;
20104;SDS011;10212;42.714;23.310;2022-12-18T03:23:49;15.35;;;10.23;;
20104;SDS011;10212;42.714;23.310;2022-12-18T03:29:14;12.63;;;8.55;;
20104;SDS011;10212;42.714;23.310;2022-12-18T03:34:17;12.40;;;8.18;;
20104;SDS011;10212;42.714;23.310;2022-12-18T03:39:23;12.50;;;7.47;;
20104;SDS011;10212;42.714;23.310;2022-12-18T03:44:29;13.93;;;7.68;;
20104;SDS011;10212;42.714;23.310;2022-12-18T03:49:39;12.70;;;7.88;;
20104;SDS011;10212;42.714;23.310;2022-12-18T03:54:53;16.35;;;9.02;;
20104;SDS011;10212;42.714;23.310;2022-12-18T03:59:57;16.40;;;9.55;;
20104;SDS011;10212;42.714;23.310;2022-12-18T04:05:03;14.98;;;9.23;;
20104;SDS011;10212;42.714;23.310;2022-12-18T04:10:06;17.58;;;10.30;;
20104;SDS011;10212;42.714;23.310;2022-12-18T04:15:08;17.33;;;10.65;;
20104;SDS011;10212;42.714;23.310;2022-12-18T04:20:10;17.35;;;10.63;;
20104;SDS011;10212;42.714;23.310;2022-12-18T04:25:11;18.73;;;11.75;;
20104;SDS011;10212;42.714;23.310;2022-12-18T04:30:11;19.58;;;11.25;;
20104;SDS011;10212;42.714;23.310;2022-12-18T04:35:12;20.75;;;11.75;;
20104;SDS011;10212;42.714;23.310;2022-12-18T04:40:12;20.95;;;12.10;;
20104;SDS011;10212;42.714;23.310;2022-12-18T04:45:12;19.58;;;11.02;;
20104;SDS011;10212;42.714;23.310;2022-12-18T04:50:13;20.50;;;11.80;;
20104;SDS011;10212;42.714;23.310;2022-12-18T04:55:13;21.20;;;12.25;;
20104;SDS011;10212;42.714;23.310;2022-12-18T05:00:14;21.10;;;12.13;;
20104;SDS011;10212;42.714;23.310;2022-12-18T05:05:15;23.42;;;13.25;;
20104;SDS011;10212;42.714;23.310;2022-12-18T05:10:15;24.00;;;12.98;;
20104;SDS011;10212;42.714;23.310;2022-12-18T05:15:16;23.25;;;12.73;;
20104;SDS011;10212;42.714;23.310;2022-12-18T05:20:16;24.98;;;13.48;;
20104;SDS011;10212;42.714;23.310;2022-12-18T05:25:18;21.98;;;13.25;;
20104;SDS011;10212;42.714;23.310;2022-12-18T05:30:18;24.73;;;13.07;;
20104;SDS011;10212;42.714;23.310;2022-12-18T05:35:19;25.98;;;13.30;;
20104;SDS011;10212;42.714;23.310;2022-12-18T05:40:19;22.13;;;12.85;;
20104;SDS011;10212;42.714;23.310;2022-12-18T05:45:20;24.20;;;13.50;;
20104;SDS011;10212;42.714;23.310;2022-12-18T05:50:20;28.35;;;13.55;;
20104;SDS011;10212;42.714;23.310;2022-12-18T05:55:20;25.83;;;14.18;;
20104;SDS011;10212;42.714;23.310;2022-12-18T06:00:21;27.58;;;14.63;;
20104;SDS011;10212;42.714;23.310;2022-12-18T06:05:21;24.73;;;14.80;;
20104;SDS011;10212;42.714;23.310;2022-12-18T06:10:22;25.80;;;14.02;;
20104;SDS011;10212;42.714;23.310;2022-12-18T06:15:22;23.52;;;13.57;;
20104;SDS011;10212;42.714;23.310;2022-12-18T06:20:25;26.90;;;14.93;;
20104;SDS011;10212;42.714;23.310;2022-12-18T06:25:25;22.73;;;12.57;;
20104;SDS011;10212;42.714;23.310;2022-12-18T06:30:26;23.85;;;12.75;;
20104;SDS011;10212;42.714;23.310;2022-12-18T06:35:26;19.75;;;11.57;;
20104;SDS011;10212;42.714;23.310;2022-12-18T06:40:26;23.52;;;13.70;;
20104;SDS011;10212;42.714;23.310;2022-12-18T06:45:27;24.15;;;13.27;;
20104;SDS011;10212;42.714;23.310;2022-12-18T06:50:27;24.67;;;12.98;;
20104;SDS011;10212;42.714;23.310;2022-12-18T06:55:28;23.90;;;13.30;;
20104;SDS011;10212;42.714;23.310;2022-12-18T07:00:28;23.27;;;12.95;;
20104;SDS011;10212;42.714;23.310;2022-12-18T07:05:29;24.85;;;13.73;;
20104;SDS011;10212;42.714;23.310;2022-12-18T07:10:29;22.95;;;13.00;;
20104;SDS011;10212;42.714;23.310;2022-12-18T07:15:30;29.02;;;15.23;;
20104;SDS011;10212;42.714;23.310;2022-12-18T07:20:30;25.92;;;14.00;;
20104;SDS011;10212;42.714;23.310;2022-12-18T07:25:34;25.40;;;13.90;;
20104;SDS011;10212;42.714;23.310;2022-12-18T07:30:36;28.98;;;16.02;;
20104;SDS011;10212;42.714;23.310;2022-12-18T07:35:38;28.95;;;16.15;;
20104;SDS011;10212;42.714;23.310;2022-12-18T07:40:38;29.90;;;16.13;;
20104;SDS011;10212;42.714;23.310;2022-12-18T07:45:39;29.70;;;16.35;;
20104;SDS011;10212;42.714;23.310;2022-12-18T07:50:39;30.20;;;16.23;;
20104;SDS011;10212;42.714;23.310;2022-12-18T07:55:40;28.20;;;16.65;;
20104;SDS011;10212;42.714;23.310;2022-12-18T08:00:41;30.83;;;16.35;;
20104;SDS011;10212;42.714;23.310;2022-12-18T08:05:41;30.67;;;16.40;;
20104;SDS011;10212;42.714;23.310;2022-12-18T08:10:42;31.90;;;17.07;;
20104;SDS011;10212;42.714;23.310;2022-12-18T08:15:42;32.00;;;17.33;;
20104;SDS011;10212;42.714;23.310;2022-12-18T08:20:43;31.55;;;16.48;;
20104;SDS011;10212;42.714;23.310;2022-12-18T08:25:43;32.03;;;17.25;;
20104;SDS011;10212;42.714;23.310;2022-12-18T08:30:44;28.77;;;16.05;;
20104;SDS011;10212;42.714;23.310;2022-12-18T08:35:44;31.20;;;15.82;;
20104;SDS011;10212;42.714;23.310;2022-12-18T08:40:45;31.55;;;14.82;;
20104;SDS011;10212;42.714;23.310;2022-12-18T08:45:45;28.55;;;15.80;;
20104;SDS011;10212;42.714;23.310;2022-12-18T08:50:55;26.17;;;13.65;;
20104;SDS011;10212;42.714;23.310;2022-12-18T08:55:56;26.52;;;14.15;;
20104;SDS011;10212;42.714;23.310;2022-12-18T09:01:00;25.98;;;14.45;;
20104;SDS011;10212;42.714;23.310;2022-12-18T09:06:02;24.02;;;13.40;;
20104;SDS011;10212;42.714;23.310;2022-12-18T09:11:02;25.23;;;14.30;;
20104;SDS011;10212;42.714;23.310;2022-12-18T09:16:03;24.15;;;13.75;;
20104;SDS011;10212;42.714;23.310;2022-12-18T09:21:07;24.38;;;12.98;;
20104;SDS011;10212;42.714;23.310;2022-12-18T09:26:15;24.05;;;13.65;;
20104;SDS011;10212;42.714;23.310;2022-12-18T09:31:17;24.23;;;13.10;;
20104;SDS011;10212;42.714;23.310;2022-12-18T09:36:19;26.35;;;13.90;;
20104;SDS011;10212;42.714;23.310;2022-12-18T09:46:36;24.00;;;13.38;;
20104;SDS011;10212;42.714;23.310;2022-12-18T09:51:47;23.83;;;12.32;;
20104;SDS011;10212;42.714;23.310;2022-12-18T09:56:52;22.40;;;12.77;;
20104;SDS011;10212;42.714;23.310;2022-12-18T10:01:53;20.50;;;11.07;;
20104;SDS011;10212;42.714;23.310;2022-12-18T10:12:52;23.20;;;12.30;;
20104;SDS011;10212;42.714;23.310;2022-12-18T10:18:10;24.15;;;12.90;;
20104;SDS011;10212;42.714;23.310;2022-12-18T10:23:20;21.98;;;11.93;;
20104;SDS011;10212;42.714;23.310;2022-12-18T10:28:26;23.65;;;12.55;;
20104;SDS011;10212;42.714;23.310;2022-12-18T10:33:30;26.75;;;14.10;;
20104;SDS011;10212;42.714;23.310;2022-12-18T10:38:32;24.60;;;13.40;;
20104;SDS011;10212;42.714;23.310;2022-12-18T10:43:34;25.98;;;14.15;;
20104;SDS011;10212;42.714;23.310;2022-12-18T10:53:39;28.23;;;14.47;;
20104;SDS011;10212;42.714;23.310;2022-12-18T10:58:41;24.15;;;13.43;;
20104;SDS011;10212;42.714;23.310;2022-12-18T11:03:46;23.95;;;12.70;;
20104;SDS011;10212;42.714;23.310;2022-12-18T11:09:41;23.75;;;12.80;;
20104;SDS011;10212;42.714;23.310;2022-12-18T11:19:33;21.48;;;12.00;;
20104;SDS011;10212;42.714;23.310;2022-12-18T11:24:35;24.98;;;13.25;;
20104;SDS011;10212;42.714;23.310;2022-12-18T11:29:37;24.52;;;13.63;;
20104;SDS011;10212;42.714;23.310;2022-12-18T11:34:39;26.48;;;14.32;;
20104;SDS011;10212;42.714;23.310;2022-12-18T11:39:46;23.35;;;12.55;;
20104;SDS011;10212;42.714;23.310;2022-12-18T11:50:13;23.52;;;12.95;;
20104;SDS011;10212;42.714;23.310;2022-12-18T11:56:01;26.60;;;14.45;;
20104;SDS011;10212;42.714;23.310;2022-12-18T12:01:06;26.20;;;13.80;;
20104;SDS011;10212;42.714;23.310;2022-12-18T12:06:30;28.65;;;14.07;;
20104;SDS011;10212;42.714;23.310;2022-12-18T12:17:45;25.45;;;14.02;;
20104;SDS011;10212;42.714;23.310;2022-12-18T12:33:56;22.17;;;12.95;;
20104;SDS011;10212;42.714;23.310;2022-12-18T12:38:59;24.85;;;12.90;;
20104;SDS011;10212;42.714;23.310;2022-12-18T12:44:07;23.83;;;13.80;;
20104;SDS011;10212;42.714;23.310;2022-12-18T12:49:18;29.52;;;15.52;;
20104;SDS011;10212;42.714;23.310;2022-12-18T12:54:24;25.67;;;14.40;;
20104;SDS011;10212;42.714;23.310;2022-12-18T12:59:30;25.85;;;13.77;;
20104;SDS011;10212;42.714;23.310;2022-12-18T13:04:43;27.88;;;14.27;;
20104;SDS011;10212;42.714;23.310;2022-12-18T13:20:42;26.98;;;14.23;;
20104;SDS011;10212;42.714;23.310;2022-12-18T13:25:45;26.48;;;14.13;;
20104;SDS011;10212;42.714;23.310;2022-12-18T13:30:50;25.88;;;14.00;;
20104;SDS011;10212;42.714;23.310;2022-12-18T13:36:04;26.15;;;13.52;;
20104;SDS011;10212;42.714;23.310;2022-12-18T13:46:23;29.95;;;13.52;;
20104;SDS011;10212;42.714;23.310;2022-12-18T13:51:27;25.15;;;13.77;;
20104;SDS011;10212;42.714;23.310;2022-12-18T13:56:31;23.45;;;12.75;;
20104;SDS011;10212;42.714;23.310;2022-12-18T14:01:33;23.73;;;12.63;;
20104;SDS011;10212;42.714;23.310;2022-12-18T14:06:34;22.83;;;12.98;;
20104;SDS011;10212;42.714;23.310;2022-12-18T14:11:35;22.17;;;12.68;;
20104;SDS011;10212;42.714;23.310;2022-12-18T14:16:35;24.20;;;13.10;;
20104;SDS011;10212;42.714;23.310;2022-12-18T14:21:36;24.95;;;13.10;;
20104;SDS011;10212;42.714;23.310;2022-12-18T14:26:38;28.00;;;14.63;;
20104;SDS011;10212;42.714;23.310;2022-12-18T14:31:38;25.13;;;12.68;;
20104;SDS011;10212;42.714;23.310;2022-12-18T14:36:38;22.92;;;12.20;;
20104;SDS011;10212;42.714;23.310;2022-12-18T14:41:39;23.20;;;12.40;;
20104;SDS011;10212;42.714;23.310;2022-12-18T14:46:41;19.92;;;11.60;;
20104;SDS011;10212;42.714;23.310;2022-12-18T14:51:54;21.23;;;12.07;;
20104;SDS011;10212;42.714;23.310;2022-12-18T14:57:00;20.63;;;11.52;;
20104;SDS011;10212;42.714;23.310;2022-12-18T15:07:23;20.88;;;11.50;;
20104;SDS011;10212;42.714;23.310;2022-12-18T15:17:35;21.92;;;12.10;;
20104;SDS011;10212;42.714;23.310;2022-12-18T15:22:35;22.95;;;11.52;;
20104;SDS011;10212;42.714;23.310;2022-12-18T15:27:36;23.42;;;12.10;;
20104;SDS011;10212;42.714;23.310;2022-12-18T15:32:39;21.10;;;11.20;;
20104;SDS011;10212;42.714;23.310;2022-12-18T15:37:40;22.70;;;12.20;;
20104;SDS011;10212;42.714;23.310;2022-12-18T15:42:41;27.63;;;12.75;;
20104;SDS011;10212;42.714;23.310;2022-12-18T15:48:01;28.60;;;13.57;;
20104;SDS011;10212;42.714;23.310;2022-12-18T15:53:02;25.88;;;12.85;;
20104;SDS011;10212;42.714;23.310;2022-12-18T15:58:04;24.83;;;12.65;;
20104;SDS011;10212;42.714;23.310;2022-12-18T16:03:05;25.02;;;13.07;;
20104;SDS011;10212;42.714;23.310;2022-12-18T16:08:07;27.10;;;13.75;;
20104;SDS011;10212;42.714;23.310;2022-12-18T16:13:09;27.73;;;14.00;;
20104;SDS011;10212;42.714;23.310;2022-12-18T16:18:10;28.20;;;15.43;;
20104;SDS011;10212;42.714;23.310;2022-12-18T16:23:11;27.30;;;14.48;;
20104;SDS011;10212;42.714;23.310;2022-12-18T16:28:11;28.20;;;14.00;;
20104;SDS011;10212;42.714;23.310;2022-12-18T16:33:12;23.92;;;12.57;;
20104;SDS011;10212;42.714;23.310;2022-12-18T16:38:12;24.90;;;13.50;;
20104;SDS011;10212;42.714;23.310;2022-12-18T16:43:13;25.08;;;14.02;;
20104;SDS011;10212;42.714;23.310;2022-12-18T16:48:13;26.88;;;14.48;;
20104;SDS011;10212;42.714;23.310;2022-12-18T16:53:14;28.00;;;14.50;;
20104;SDS011;10212;42.714;23.310;2022-12-18T16:58:14;28.92;;;14.35;;
20104;SDS011;10212;42.714;23.310;2022-12-18T17:03:14;28.25;;;13.50;;
20104;SDS011;10212;42.714;23.310;2022-12-18T17:08:15;28.55;;;14.20;;
20104;SDS011;10212;42.714;23.310;2022-12-18T17:13:15;27.58;;;13.77;;
20104;SDS011;10212;42.714;23.310;2022-12-18T17:18:16;26.63;;;13.60;;
20104;SDS011;10212;42.714;23.310;2022-12-18T17:23:16;25.23;;;13.20;;
20104;SDS011;10212;42.714;23.310;2022-12-18T17:28:17;27.05;;;14.13;;
20104;SDS011;10212;42.714;23.310;2022-12-18T17:33:17;28.45;;;13.68;;
20104;SDS011;10212;42.714;23.310;2022-12-18T17:38:18;26.33;;;13.27;;
20104;SDS011;10212;42.714;23.310;2022-12-18T17:43:18;25.27;;;12.93;;
20104;SDS011;10212;42.714;23.310;2022-12-18T17:48:19;26.48;;;13.32;;
20104;SDS011;10212;42.714;23.310;2022-12-18T17:53:19;28.27;;;13.85;;
20104;SDS011;10212;42.714;23.310;2022-12-18T17:58:20;27.98;;;14.43;;
20104;SDS011;10212;42.714;23.310;2022-12-18T18:03:21;25.35;;;13.57;;
20104;SDS011;10212;42.714;23.310;2022-12-18T18:08:22;24.88;;;13.45;;
20104;SDS011;10212;42.714;23.310;2022-12-18T18:13:25;28.55;;;13.65;;
20104;SDS011;10212;42.714;23.310;2022-12-18T18:18:44;26.48;;;13.63;;
20104;SDS011;10212;42.714;23.310;2022-12-18T18:23:44;28.88;;;15.30;;
20104;SDS011;10212;42.714;23.310;2022-12-18T18:28:45;29.40;;;15.50;;
20104;SDS011;10212;42.714;23.310;2022-12-18T18:33:45;28.60;;;14.88;;
20104;SDS011;10212;42.714;23.310;2022-12-18T18:38:46;28.52;;;15.38;;
20104;SDS011;10212;42.714;23.310;2022-12-18T18:43:47;28.23;;;14.85;;
20104;SDS011;10212;42.714;23.310;2022-12-18T18:48:47;27.52;;;13.52;;
20104;SDS011;10212;42.714;23.310;2022-12-18T18:53:50;27.40;;;14.07;;
20104;SDS011;10212;42.714;23.310;2022-12-18T19:03:55;29.17;;;14.63;;
20104;SDS011;10212;42.714;23.310;2022-12-18T19:08:55;32.70;;;16.33;;
20104;SDS011;10212;42.714;23.310;2022-12-18T19:13:57;31.30;;;14.82;;
20104;SDS011;10212;42.714;23.310;2022-12-18T19:18:58;28.58;;;14.82;;
20104;SDS011;10212;42.714;23.310;2022-12-18T19:24:00;30.17;;;14.80;;
20104;SDS011;10212;42.714;23.310;2022-12-18T19:29:02;32.20;;;15.55;;
20104;SDS011;10212;42.714;23.310;2022-12-18T19:34:05;30.08;;;14.93;;
20104;SDS011;10212;42.714;23.310;2022-12-18T19:39:09;30.98;;;15.43;;
20104;SDS011;10212;42.714;23.310;2022-12-18T19:44:15;29.25;;;15.02;;
20104;SDS011;10212;42.714;23.310;2022-12-18T19:49:16;30.15;;;14.68;;
20104;SDS011;10212;42.714;23.310;2022-12-18T19:54:17;29.83;;;15.05;;
20104;SDS011;10212;42.714;23.310;2022-12-18T19:59:17;32.17;;;16.17;;
20104;SDS011;10212;42.714;23.310;2022-12-18T20:04:18;33.45;;;16.70;;
20104;SDS011;10212;42.714;23.310;2022-12-18T20:09:19;33.33;;;17.17;;
20104;SDS011;10212;42.714;23.310;2022-12-18T20:14:21;36.03;;;17.63;;
20104;SDS011;10212;42.714;23.310;2022-12-18T20:19:21;35.78;;;16.00;;
20104;SDS011;10212;42.714;23.310;2022-12-18T20:24:22;30.98;;;16.08;;
20104;SDS011;10212;42.714;23.310;2022-12-18T20:29:22;32.85;;;16.55;;
20104;SDS011;10212;42.714;23.310;2022-12-18T20:34:23;36.03;;;18.10;;
20104;SDS011;10212;42.714;23.310;2022-12-18T20:39:23;103.53;;;45.92;;
20104;SDS011;10212;42.714;23.310;2022-12-18T20:44:25;34.97;;;17.75;;
20104;SDS011;10212;42.714;23.310;2022-12-18T20:49:26;32.65;;;16.58;;
20104;SDS011;10212;42.714;23.310;2022-12-18T20:54:26;35.10;;;16.55;;
20104;SDS011;10212;42.714;23.310;2022-12-18T20:59:27;34.90;;;17.10;;
20104;SDS011;10212;42.714;23.310;2022-12-18T21:04:27;32.47;;;16.50;;
20104;SDS011;10212;42.714;23.310;2022-12-18T21:09:28;32.55;;;17.15;;
20104;SDS011;10212;42.714;23.310;2022-12-18T21:14:32;32.03;;;16.27;;
20104;SDS011;10212;42.714;23.310;2022-12-18T21:19:34;36.40;;;16.73;;
20104;SDS011;10212;42.714;23.310;2022-12-18T21:24:34;32.88;;;15.68;;
20104;SDS011;10212;42.714;23.310;2022-12-18T21:29:35;34.63;;;17.20;;
20104;SDS011;10212;42.714;23.310;2022-12-18T21:34:36;32.83;;;15.77;;
20104;SDS011;10212;42.714;23.310;2022-12-18T21:39:37;34.45;;;17.45;;
20104;SDS011;10212;42.714;23.310;2022-12-18T21:44:37;31.08;;;16.25;;
20104;SDS011;10212;42.714;23.310;2022-12-18T21:49:38;32.30;;;16.15;;
20104;SDS011;10212;42.714;23.310;2022-12-18T21:54:38;35.05;;;17.13;;
20104;SDS011;10212;42.714;23.310;2022-12-18T21:59:40;29.98;;;15.30;;
20104;SDS011;10212;42.714;23.310;2022-12-18T22:04:42;33.88;;;16.35;;
20104;SDS011;10212;42.714;23.310;2022-12-18T22:09:45;32.15;;;16.00;;
20104;SDS011;10212;42.714;23.310;2022-12-18T22:14:46;32.42;;;16.23;;
20104;SDS011;10212;42.714;23.310;2022-12-18T22:19:46;35.50;;;16.30;;
20104;SDS011;10212;42.714;23.310;2022-12-18T22:24:46;32.05;;;16.08;;
20104;SDS011;10212;42.714;23.310;2022-12-18T22:29:47;31.73;;;16.13;;
20104;SDS011;10212;42.714;23.310;2022-12-18T22:35:05;30.25;;;15.18;;
20104;SDS011;10212;42.714;23.310;2022-12-18T22:40:08;30.88;;;15.35;;
20104;SDS011;10212;42.714;23.310;2022-12-18T22:45:17;32.45;;;16.05;;
20104;SDS011;10212;42.714;23.310;2022-12-18T22:50:17;30.65;;;15.32;;
20104;SDS011;10212;42.714;23.310;2022-12-18T22:55:18;32.65;;;16.60;;
20104;SDS011;10212;42.714;23.310;2022-12-18T23:00:18;29.77;;;15.43;;
20104;SDS011;10212;42.714;23.310;2022-12-18T23:05:19;31.10;;;15.23;;
20104;SDS011;10212;42.714;23.310;2022-12-18T23:10:19;30.38;;;14.50;;
20104;SDS011;10212;42.714;23.310;2022-12-18T23:15:19;28.42;;;14.88;;
20104;SDS011;10212;42.714;23.310;2022-12-18T23:20:20;33.28;;;15.88;;
20104;SDS011;10212;42.714;23.310;2022-12-18T23:25:20;33.05;;;15.00;;
20104;SDS011;10212;42.714;23.310;2022-12-18T23:30:21;29.42;;;14.55;;
20104;SDS011;10212;42.714;23.310;2022-12-18T23:35:21;30.45;;;14.90;;
20104;SDS011;10212;42.714;23.310;2022-12-18T23:40:21;31.50;;;15.65;;
20104;SDS011;10212;42.714;23.310;2022-12-18T23:45:22;33.75;;;15.90;;
20104;SDS011;10212;42.714;23.310;2022-12-18T23:50:22;30.40;;;15.30;;
20104;SDS011;10212;42.714;23.310;2022-12-18T23:55:23;30.02;;;15.38;;
